createdAt,value
2017-08-21T00:00:35.984Z,84.05
2017-08-21T00:01:44.974Z,83.76
2017-08-21T00:02:54.539Z,83.86
2017-08-21T00:04:03.626Z,83.86
2017-08-21T00:05:12.765Z,83.86
2017-08-21T00:06:21.926Z,83.67
2017-08-21T00:07:30.944Z,83.95
2017-08-21T00:08:40.102Z,83.76
2017-08-21T00:09:49.203Z,83.86
2017-08-21T00:10:58.284Z,84.34
2017-08-21T00:12:07.707Z,84.05
2017-08-21T00:13:16.664Z,84.63
2017-08-21T00:14:25.621Z,84.82
2017-08-21T00:15:34.579Z,83.95
2017-08-21T00:16:43.528Z,84.25
2017-08-21T00:17:52.486Z,84.53
2017-08-21T00:19:01.444Z,84.82
2017-08-21T00:20:10.401Z,84.63
2017-08-21T00:21:19.358Z,84.25
2017-08-21T00:22:28.310Z,84.34
2017-08-21T00:23:37.264Z,84.15
2017-08-21T00:24:46.216Z,84.34
2017-08-21T00:25:55.179Z,84.34
2017-08-21T00:27:04.144Z,84.63
2017-08-21T00:28:13.102Z,84.72
2017-08-21T00:29:22.057Z,84.63
2017-08-21T00:30:31.025Z,84.72
2017-08-21T00:31:39.988Z,84.44
2017-08-21T00:32:48.944Z,84.15
2017-08-21T00:33:57.892Z,84.25
2017-08-21T00:35:06.868Z,84.44
2017-08-21T00:36:15.825Z,84.15
2017-08-21T00:37:25.094Z,84.53
2017-08-21T00:38:34.050Z,84.72
2017-08-21T00:39:43.010Z,84.53
2017-08-21T00:40:51.973Z,84.72
2017-08-21T00:42:00.932Z,84.72
2017-08-21T00:43:09.897Z,84.34
2017-08-21T00:44:18.853Z,84.53
2017-08-21T00:45:27.812Z,84.82
2017-08-21T00:46:37.410Z,84.63
2017-08-21T00:47:46.365Z,84.91
2017-08-21T00:48:55.321Z,84.78
2017-08-21T00:50:04.292Z,84.68
2017-08-21T00:51:13.265Z,84.68
2017-08-21T00:52:22.215Z,84.49
2017-08-21T00:53:31.177Z,84.78
2017-08-21T00:54:40.136Z,85.16
2017-08-21T00:55:49.083Z,85.06
2017-08-21T00:56:58.032Z,84.97
2017-08-21T00:58:06.984Z,85.16
2017-08-21T00:59:15.940Z,85.16
2017-08-21T01:00:24.901Z,85.35
2017-08-21T01:01:33.858Z,85.54
2017-08-21T01:02:42.814Z,85.35
2017-08-21T01:03:51.766Z,85.25
2017-08-21T01:05:00.746Z,85.25
2017-08-21T01:06:09.708Z,85.35
2017-08-21T01:07:18.665Z,85.45
2017-08-21T01:08:27.630Z,85.45
2017-08-21T01:09:36.587Z,85.45
2017-08-21T01:10:45.545Z,85.25
2017-08-21T01:11:54.827Z,85.83
2017-08-21T01:13:04.122Z,85.74
2017-08-21T01:14:13.080Z,85.45
2017-08-21T01:15:22.033Z,85.83
2017-08-21T01:16:30.996Z,85.83
2017-08-21T01:17:39.956Z,85.74
2017-08-21T01:18:48.911Z,86.12
2017-08-21T01:19:57.871Z,86.12
2017-08-21T01:21:06.834Z,85.93
2017-08-21T01:22:15.782Z,85.83
2017-08-21T01:23:24.733Z,85.93
2017-08-21T01:24:33.696Z,86.6
2017-08-21T01:25:42.647Z,86.65
2017-08-21T01:26:51.598Z,86.31
2017-08-21T01:28:00.547Z,86.6
2017-08-21T01:29:09.502Z,86.46
2017-08-21T01:30:18.458Z,86.69
2017-08-21T01:31:27.409Z,86.6
2017-08-21T01:32:36.369Z,86.5
2017-08-21T01:33:45.326Z,86.41
2017-08-21T01:34:54.307Z,86.46
2017-08-21T01:36:03.577Z,86.08
2017-08-21T01:37:12.531Z,86.27
2017-08-21T01:38:21.492Z,86.27
2017-08-21T01:39:30.765Z,86.31
2017-08-21T01:40:39.741Z,86.31
2017-08-21T01:41:48.704Z,86.21
2017-08-21T01:42:57.653Z,86.36
2017-08-21T01:44:06.612Z,86.94
2017-08-21T01:45:15.882Z,86.6
2017-08-21T01:46:24.838Z,86.94
2017-08-21T01:47:34.116Z,86.94
2017-08-21T01:48:43.076Z,86.69
2017-08-21T01:49:52.022Z,86.46
2017-08-21T01:51:01.308Z,86.88
2017-08-21T01:52:10.262Z,86.94
2017-08-21T01:53:19.217Z,87.08
2017-08-21T01:54:28.167Z,86.79
2017-08-21T01:55:37.123Z,87.23
2017-08-21T01:56:46.085Z,87.13
2017-08-21T01:57:55.043Z,87.23
2017-08-21T01:59:03.994Z,87.32
2017-08-21T02:00:12.955Z,87.41
2017-08-21T02:01:21.902Z,86.94
2017-08-21T02:02:30.847Z,87.41
2017-08-21T02:03:39.797Z,87.41
2017-08-21T02:04:49.076Z,87.41
2017-08-21T02:05:58.032Z,87.8
2017-08-21T02:07:06.991Z,87.32
2017-08-21T02:08:15.945Z,87.41
2017-08-21T02:09:24.905Z,87.23
2017-08-21T02:10:33.857Z,87.61
2017-08-21T02:11:42.812Z,87.46
2017-08-21T02:12:51.760Z,87.84
2017-08-21T02:14:00.713Z,87.41
2017-08-21T02:15:09.665Z,87.51
2017-08-21T02:16:18.622Z,87.8
2017-08-21T02:17:27.597Z,88.09
2017-08-21T02:18:36.879Z,87.61
2017-08-21T02:19:45.837Z,87.8
2017-08-21T02:20:54.798Z,87.32
2017-08-21T02:22:03.781Z,87.7
2017-08-21T02:23:13.060Z,87.74
2017-08-21T02:24:22.034Z,87.9
2017-08-21T02:25:31.006Z,87.51
2017-08-21T02:26:39.964Z,88.28
2017-08-21T02:27:48.926Z,87.51
2017-08-21T02:28:57.886Z,88.18
2017-08-21T02:30:07.162Z,87.99
2017-08-21T02:31:16.150Z,87.7
2017-08-21T02:32:25.107Z,88.28
2017-08-21T02:33:34.059Z,88.09
2017-08-21T02:34:43.020Z,88.09
2017-08-21T02:35:51.977Z,88.18
2017-08-21T02:37:00.935Z,88.28
2017-08-21T02:38:09.898Z,88.18
2017-08-21T02:39:19.177Z,88.47
2017-08-21T02:40:28.134Z,88.28
2017-08-21T02:41:37.097Z,88.47
2017-08-21T02:42:46.048Z,88.18
2017-08-21T02:43:55.005Z,88.37
2017-08-21T02:45:03.956Z,88.18
2017-08-21T02:46:12.908Z,88.18
2017-08-21T02:47:21.897Z,88.66
2017-08-21T02:48:30.855Z,88.47
2017-08-21T02:49:39.801Z,88.56
2017-08-21T02:50:49.081Z,89.04
2017-08-21T02:51:58.049Z,88.95
2017-08-21T02:53:07.007Z,89.04
2017-08-21T02:54:15.961Z,88.85
2017-08-21T02:55:24.928Z,89.04
2017-08-21T02:56:33.902Z,88.76
2017-08-21T02:57:42.851Z,88.66
2017-08-21T02:58:51.805Z,88.95
2017-08-21T03:00:00.762Z,89.43
2017-08-21T03:01:09.717Z,89.14
2017-08-21T03:02:18.673Z,89.04
2017-08-21T03:03:27.622Z,89.72
2017-08-21T03:04:36.576Z,89.81
2017-08-21T03:05:45.528Z,89.72
2017-08-21T03:06:54.485Z,88.95
2017-08-21T03:08:03.758Z,89.9
2017-08-21T03:09:12.722Z,88.85
2017-08-21T03:10:21.674Z,89.72
2017-08-21T03:11:30.645Z,89.72
2017-08-21T03:12:39.597Z,89.9
2017-08-21T03:13:48.553Z,89.72
2017-08-21T03:14:57.500Z,89.72
2017-08-21T03:16:06.468Z,89.72
2017-08-21T03:17:15.421Z,89.62
2017-08-21T03:18:24.375Z,89.81
2017-08-21T03:19:33.325Z,89.62
2017-08-21T03:20:42.283Z,89.43
2017-08-21T03:21:51.244Z,89.52
2017-08-21T03:23:00.203Z,89.62
2017-08-21T03:24:09.164Z,89.52
2017-08-21T03:25:18.115Z,89.62
2017-08-21T03:26:27.090Z,89.62
2017-08-21T03:27:36.050Z,89.62
2017-08-21T03:28:45.003Z,89.33
2017-08-21T03:29:53.957Z,89.72
2017-08-21T03:31:02.911Z,89.52
2017-08-21T03:32:11.886Z,89.9
2017-08-21T03:33:20.849Z,89.81
2017-08-21T03:34:29.823Z,89.52
2017-08-21T03:35:39.090Z,89.81
2017-08-21T03:36:48.048Z,89.43
2017-08-21T03:37:57.032Z,89.81
2017-08-21T03:39:05.996Z,89.9
2017-08-21T03:40:14.956Z,89.43
2017-08-21T03:41:23.909Z,89.43
2017-08-21T03:42:32.864Z,89.33
2017-08-21T03:43:41.820Z,89.81
2017-08-21T03:44:50.777Z,90
2017-08-21T03:45:59.736Z,89.81
2017-08-21T03:47:08.689Z,89.81
2017-08-21T03:48:17.645Z,89.72
2017-08-21T03:49:26.595Z,89.72
2017-08-21T03:50:35.641Z,89.52
2017-08-21T03:51:44.591Z,89.72
2017-08-21T03:52:53.543Z,89.81
2017-08-21T03:54:02.492Z,89.9
2017-08-21T03:55:11.438Z,89.81
2017-08-21T03:56:20.399Z,89.62
2017-08-21T03:57:29.349Z,89.72
2017-08-21T03:58:38.308Z,89.62
2017-08-21T03:59:47.598Z,89.72
2017-08-21T04:00:56.547Z,89.9
2017-08-21T04:02:05.845Z,89.62
2017-08-21T04:03:14.805Z,89.72
2017-08-21T04:04:23.761Z,89.72
2017-08-21T04:05:32.749Z,89.72
2017-08-21T04:06:41.703Z,89.81
2017-08-21T04:07:50.662Z,89.62
2017-08-21T04:08:59.618Z,89.72
2017-08-21T04:10:08.574Z,89.04
2017-08-21T04:11:17.857Z,88.85
2017-08-21T04:12:27.145Z,89.04
2017-08-21T04:13:36.098Z,89.23
2017-08-21T04:14:45.051Z,88.95
2017-08-21T04:15:54.010Z,88.85
2017-08-21T04:17:03.292Z,88.9
2017-08-21T04:18:12.244Z,88.99
2017-08-21T04:19:21.196Z,89.33
2017-08-21T04:20:30.163Z,89.18
2017-08-21T04:21:39.114Z,89.28
2017-08-21T04:22:48.069Z,89.47
2017-08-21T04:23:57.026Z,88.56
2017-08-21T04:25:05.968Z,88.85
2017-08-21T04:26:14.930Z,88.8
2017-08-21T04:27:23.886Z,88.56
2017-08-21T04:28:32.878Z,88.95
2017-08-21T04:29:41.830Z,88.56
2017-08-21T04:30:50.782Z,88.51
2017-08-21T04:32:00.070Z,88.61
2017-08-21T04:33:09.117Z,88.56
2017-08-21T04:34:18.071Z,88.37
2017-08-21T04:35:27.015Z,88.32
2017-08-21T04:36:35.963Z,88.99
2017-08-21T04:37:45.246Z,88.99
2017-08-21T04:38:54.289Z,88.61
2017-08-21T04:40:03.241Z,88.42
2017-08-21T04:41:12.607Z,88.56
2017-08-21T04:42:21.552Z,88.32
2017-08-21T04:43:30.503Z,88.42
2017-08-21T04:44:39.455Z,88.51
2017-08-21T04:45:48.403Z,88.42
2017-08-21T04:46:57.686Z,88.7
2017-08-21T04:48:06.669Z,88.51
2017-08-21T04:49:15.626Z,88.56
2017-08-21T04:50:24.592Z,88.23
2017-08-21T04:51:33.540Z,88.51
2017-08-21T04:52:42.497Z,88.37
2017-08-21T04:53:51.451Z,87.8
2017-08-21T04:55:00.404Z,87.9
2017-08-21T04:56:09.356Z,88.7
2017-08-21T04:57:18.313Z,87.99
2017-08-21T04:58:27.268Z,88.23
2017-08-21T04:59:36.227Z,88.32
2017-08-21T05:00:45.180Z,88.51
2017-08-21T05:01:54.468Z,88.32
2017-08-21T05:03:03.435Z,88.32
2017-08-21T05:04:12.401Z,87.94
2017-08-21T05:05:21.356Z,88.51
2017-08-21T05:06:30.315Z,88.03
2017-08-21T05:07:39.295Z,88.23
2017-08-21T05:08:48.247Z,88.23
2017-08-21T05:09:57.221Z,88.23
2017-08-21T05:11:06.268Z,87.84
2017-08-21T05:12:15.224Z,88.7
2017-08-21T05:13:24.173Z,87.94
2017-08-21T05:14:33.126Z,88.28
2017-08-21T05:15:42.079Z,88.23
2017-08-21T05:16:51.034Z,88.28
2017-08-21T05:17:59.982Z,88.51
2017-08-21T05:19:09.263Z,88.51
2017-08-21T05:20:18.207Z,88.42
2017-08-21T05:21:27.156Z,88.61
2017-08-21T05:22:36.114Z,88.61
2017-08-21T05:23:45.058Z,88.61
2017-08-21T05:24:54.017Z,88.32
2017-08-21T05:26:02.975Z,88.51
2017-08-21T05:27:12.249Z,88.13
2017-08-21T05:28:21.200Z,88.42
2017-08-21T05:29:30.150Z,88.51
2017-08-21T05:30:39.109Z,88.51
2017-08-21T05:31:48.054Z,88.51
2017-08-21T05:32:57.341Z,88.23
2017-08-21T05:34:06.626Z,88.23
2017-08-21T05:35:15.576Z,88.23
2017-08-21T05:36:24.526Z,88.13
2017-08-21T05:37:33.477Z,88.13
2017-08-21T05:38:42.458Z,88.32
2017-08-21T05:39:51.417Z,87.94
2017-08-21T05:41:00.691Z,88.7
2017-08-21T05:42:09.644Z,88.18
2017-08-21T05:43:18.596Z,88.32
2017-08-21T05:44:27.553Z,88.42
2017-08-21T05:45:36.498Z,88.47
2017-08-21T05:46:45.780Z,88.51
2017-08-21T05:47:54.753Z,88.28
2017-08-21T05:49:03.701Z,88.32
2017-08-21T05:50:12.653Z,88.28
2017-08-21T05:51:21.934Z,88.28
2017-08-21T05:52:30.885Z,87.94
2017-08-21T05:53:39.839Z,88.23
2017-08-21T05:54:48.790Z,88.23
2017-08-21T05:55:57.746Z,88.32
2017-08-21T05:57:06.707Z,87.55
2017-08-21T05:58:15.666Z,87.55
2017-08-21T05:59:24.620Z,87.37
2017-08-21T06:00:33.570Z,87.84
2017-08-21T06:01:42.522Z,87.94
2017-08-21T06:02:51.474Z,87.46
2017-08-21T06:04:00.435Z,87.37
2017-08-21T06:05:09.403Z,87.27
2017-08-21T06:06:18.360Z,87.17
2017-08-21T06:07:27.313Z,87.37
2017-08-21T06:08:36.265Z,87.37
2017-08-21T06:09:45.227Z,86.98
2017-08-21T06:10:54.179Z,87.08
2017-08-21T06:12:03.134Z,87.37
2017-08-21T06:13:12.093Z,87.17
2017-08-21T06:14:21.050Z,87.27
2017-08-21T06:15:30.324Z,86.98
2017-08-21T06:16:39.289Z,87.17
2017-08-21T06:17:48.247Z,86.88
2017-08-21T06:18:57.192Z,86.69
2017-08-21T06:20:06.149Z,86.79
2017-08-21T06:21:15.135Z,86.79
2017-08-21T06:22:24.087Z,86.31
2017-08-21T06:23:33.043Z,86.5
2017-08-21T06:24:42.002Z,86.6
2017-08-21T06:25:50.959Z,86.5
2017-08-21T06:26:59.944Z,86.12
2017-08-21T06:28:08.894Z,86.31
2017-08-21T06:29:17.850Z,86.41
2017-08-21T06:30:27.150Z,86.31
2017-08-21T06:31:36.119Z,86.31
2017-08-21T06:32:45.074Z,86.5
2017-08-21T06:33:54.040Z,86.31
2017-08-21T06:35:03.004Z,86.31
2017-08-21T06:36:11.956Z,86.41
2017-08-21T06:37:20.910Z,86.5
2017-08-21T06:38:29.868Z,86.5
2017-08-21T06:39:39.164Z,86.21
2017-08-21T06:40:48.407Z,86.31
2017-08-21T06:41:57.357Z,86.31
2017-08-21T06:43:06.315Z,86.41
2017-08-21T06:44:15.291Z,86.79
2017-08-21T06:45:24.256Z,86.6
2017-08-21T06:46:33.209Z,86.6
2017-08-21T06:47:42.169Z,86.79
2017-08-21T06:48:51.124Z,86.79
2017-08-21T06:50:00.402Z,86.6
2017-08-21T06:51:09.360Z,86.69
2017-08-21T06:52:18.321Z,86.12
2017-08-21T06:53:27.287Z,86.69
2017-08-21T06:54:36.243Z,86.5
2017-08-21T06:55:45.195Z,86.41
2017-08-21T06:56:54.153Z,86.41
2017-08-21T06:58:03.107Z,86.5
2017-08-21T06:59:12.071Z,86.31
2017-08-21T07:00:21.021Z,86.6
2017-08-21T07:01:29.975Z,85.97
2017-08-21T07:02:39.215Z,85.78
2017-08-21T07:03:48.250Z,85.88
2017-08-21T07:05:03.022Z,85.39
2017-08-21T07:06:34.781Z,85.39
2017-08-21T07:08:05.675Z,85.88
2017-08-21T07:09:42.483Z,85.88
2017-08-21T07:11:12.764Z,85.58
2017-08-21T07:12:42.883Z,85.58
2017-08-21T07:14:13.002Z,85.68
2017-08-21T07:15:46.246Z,85.88
2017-08-21T07:17:17.568Z,85.78
2017-08-21T07:18:48.110Z,85.39
2017-08-21T07:20:17.581Z,85.3
2017-08-21T07:21:50.775Z,85.39
2017-08-21T07:23:21.117Z,85.21
2017-08-21T07:24:51.840Z,84.72
2017-08-21T07:26:22.516Z,84.82
2017-08-21T07:27:57.112Z,84.25
2017-08-21T07:29:13.901Z,84.72
2017-08-21T07:30:22.881Z,84.15
2017-08-21T07:31:32.158Z,84.53
2017-08-21T07:32:41.135Z,84.63
2017-08-21T07:33:50.089Z,84.63
2017-08-21T07:34:59.050Z,84.15
2017-08-21T07:36:08.011Z,84.25
2017-08-21T07:37:16.961Z,84.05
2017-08-21T07:38:25.909Z,84.25
2017-08-21T07:39:34.869Z,83.95
2017-08-21T07:40:43.829Z,83.76
2017-08-21T07:41:52.813Z,83.95
2017-08-21T07:43:01.779Z,83.86
2017-08-21T07:44:11.243Z,84.05
2017-08-21T07:45:20.200Z,83.38
2017-08-21T07:46:29.160Z,83.58
2017-08-21T07:47:38.114Z,84.05
2017-08-21T07:48:47.394Z,83.86
2017-08-21T07:49:58.879Z,83.67
2017-08-21T07:51:12.270Z,83.86
2017-08-21T07:52:21.496Z,83.76
2017-08-21T07:53:30.510Z,83.91
2017-08-21T07:54:39.763Z,83.48
2017-08-21T07:55:50.162Z,83.71
2017-08-21T07:56:59.122Z,83.42
2017-08-21T07:58:08.399Z,83.52
2017-08-21T07:59:17.358Z,83.14
2017-08-21T08:00:26.319Z,83.14
2017-08-21T08:01:35.277Z,83.04
2017-08-21T08:02:44.237Z,82.85
2017-08-21T08:03:53.321Z,81.98
2017-08-21T08:05:02.306Z,81.41
2017-08-21T08:06:11.604Z,81.79
2017-08-21T08:07:20.917Z,81.22
2017-08-21T08:08:29.892Z,80.83
2017-08-21T08:09:39.199Z,80.83
2017-08-21T08:10:48.191Z,80.83
2017-08-21T08:11:57.171Z,80.74
2017-08-21T08:13:06.165Z,80.55
2017-08-21T08:14:15.142Z,80.93
2017-08-21T08:15:24.120Z,80.74
2017-08-21T08:16:33.411Z,81.02
2017-08-21T08:17:42.397Z,81.02
2017-08-21T08:18:51.388Z,80.93
2017-08-21T08:20:00.686Z,81.07
2017-08-21T08:21:09.665Z,80.78
2017-08-21T08:22:18.648Z,80.78
2017-08-21T08:23:27.605Z,80.87
2017-08-21T08:24:36.571Z,80.68
2017-08-21T08:25:45.530Z,80.68
2017-08-21T08:26:54.494Z,80.4
2017-08-21T08:28:03.470Z,80.3
2017-08-21T08:29:12.466Z,80.3
2017-08-21T08:30:21.435Z,80.3
2017-08-21T08:31:30.384Z,80.49
2017-08-21T08:32:39.342Z,80.4
2017-08-21T08:33:48.313Z,79.63
2017-08-21T08:34:57.267Z,79.91
2017-08-21T08:36:06.221Z,79.91
2017-08-21T08:37:15.200Z,79.82
2017-08-21T08:38:24.161Z,79.82
2017-08-21T08:39:33.118Z,79.82
2017-08-21T08:40:42.082Z,79.91
2017-08-21T08:41:51.043Z,79.34
2017-08-21T08:42:59.999Z,79.82
2017-08-21T08:44:09.310Z,79.63
2017-08-21T08:45:18.607Z,79.63
2017-08-21T08:46:27.562Z,79.76
2017-08-21T08:47:36.518Z,79.76
2017-08-21T08:48:45.487Z,79.09
2017-08-21T08:49:54.444Z,79.19
2017-08-21T08:51:03.402Z,79.09
2017-08-21T08:52:12.356Z,78.99
2017-08-21T08:53:21.321Z,79.28
2017-08-21T08:54:30.279Z,78.8
2017-08-21T08:55:39.233Z,78.32
2017-08-21T08:56:48.188Z,78.03
2017-08-21T08:57:57.151Z,78.03
2017-08-21T08:59:06.109Z,77.56
2017-08-21T09:00:15.143Z,77.56
2017-08-21T09:01:24.097Z,77.75
2017-08-21T09:02:33.156Z,77.56
2017-08-21T09:03:42.316Z,77.65
2017-08-21T09:04:51.628Z,77.36
2017-08-21T09:06:00.723Z,77.56
2017-08-21T09:07:10.038Z,77.75
2017-08-21T09:08:19.157Z,77.75
2017-08-21T09:09:28.343Z,77.84
2017-08-21T09:10:37.420Z,77.36
2017-08-21T09:11:46.542Z,77.65
2017-08-21T09:12:55.702Z,77.84
2017-08-21T09:14:05.116Z,77.36
2017-08-21T09:15:14.269Z,77.21
2017-08-21T09:16:23.510Z,77.01
2017-08-21T09:17:32.603Z,77.11
2017-08-21T09:18:41.809Z,76.82
2017-08-21T09:19:50.983Z,76.92
2017-08-21T09:21:00.147Z,76.92
2017-08-21T09:22:09.266Z,77.11
2017-08-21T09:23:18.233Z,76.82
2017-08-21T09:24:27.192Z,76.73
2017-08-21T09:25:36.266Z,77.01
2017-08-21T09:26:45.224Z,76.25
2017-08-21T09:27:54.184Z,76.06
2017-08-21T09:29:03.144Z,76.15
2017-08-21T09:30:12.109Z,76.34
2017-08-21T09:31:21.063Z,76.44
2017-08-21T09:32:30.428Z,76.06
2017-08-21T09:33:39.381Z,75.96
2017-08-21T09:34:48.398Z,76.15
2017-08-21T09:35:57.487Z,75.52
2017-08-21T09:37:06.642Z,75.57
2017-08-21T09:38:15.599Z,75.13
2017-08-21T09:39:24.759Z,75.13
2017-08-21T09:40:34.226Z,75.13
2017-08-21T09:41:43.436Z,74.94
2017-08-21T09:42:52.648Z,75.04
2017-08-21T09:44:01.826Z,74.55
2017-08-21T09:45:10.989Z,74.55
2017-08-21T09:46:20.197Z,74.37
2017-08-21T09:47:29.193Z,74.46
2017-08-21T09:48:38.455Z,74.02
2017-08-21T09:49:47.605Z,73.98
2017-08-21T09:50:56.599Z,73.88
2017-08-21T09:52:05.791Z,73.5
2017-08-21T09:53:14.936Z,73.6
2017-08-21T09:54:24.353Z,73.25
2017-08-21T09:55:33.666Z,73.31
2017-08-21T09:56:42.883Z,73.02
2017-08-21T09:57:51.945Z,73.02
2017-08-21T09:59:00.935Z,73.6
2017-08-21T10:00:09.900Z,73.69
2017-08-21T10:01:18.857Z,75.13
2017-08-21T10:02:27.825Z,76.19
2017-08-21T10:03:37.114Z,77.25
2017-08-21T10:04:46.073Z,77.78
2017-08-21T10:05:55.037Z,78.08
2017-08-21T10:07:04.323Z,78.84
2017-08-21T10:08:13.276Z,78.27
2017-08-21T10:09:22.229Z,77.98
2017-08-21T10:10:31.200Z,77.4
2017-08-21T10:11:40.167Z,77.11
2017-08-21T10:12:49.120Z,77.11
2017-08-21T10:13:58.405Z,76.57
2017-08-21T10:15:07.360Z,76.77
2017-08-21T10:16:16.322Z,77.06
2017-08-21T10:17:25.277Z,76.77
2017-08-21T10:18:34.240Z,76.44
2017-08-21T10:19:43.198Z,77.5
2017-08-21T10:20:52.151Z,79.22
2017-08-21T10:22:01.116Z,79.71
2017-08-21T10:23:10.079Z,79.71
2017-08-21T10:24:19.033Z,80.19
2017-08-21T10:25:27.989Z,79.99
2017-08-21T10:26:37.278Z,79.32
2017-08-21T10:27:46.238Z,78.94
2017-08-21T10:28:55.201Z,78.65
2017-08-21T10:30:04.490Z,78.17
2017-08-21T10:31:13.532Z,77.31
2017-08-21T10:32:22.492Z,77.31
2017-08-21T10:33:31.450Z,77.15
2017-08-21T10:34:40.408Z,77.15
2017-08-21T10:35:49.360Z,77.21
2017-08-21T10:36:58.320Z,77.92
2017-08-21T10:38:07.276Z,78.55
2017-08-21T10:39:16.238Z,81.34
2017-08-21T10:40:25.192Z,84.7
2017-08-21T10:41:34.151Z,86.72
2017-08-21T10:42:43.110Z,87.01
2017-08-21T10:43:52.071Z,87.39
2017-08-21T10:45:01.026Z,88.88
2017-08-21T10:46:10.413Z,89.75
2017-08-21T10:47:19.377Z,90.8
2017-08-21T10:48:28.341Z,91.57
2017-08-21T10:49:37.296Z,91.86
2017-08-21T10:50:46.277Z,91.38
2017-08-21T10:51:55.227Z,90.42
2017-08-21T10:53:04.181Z,89.65
2017-08-21T10:54:13.145Z,90.17
2017-08-21T10:55:22.099Z,90.22
2017-08-21T10:56:31.062Z,90.84
2017-08-21T10:57:40.019Z,90.66
2017-08-21T10:58:49.301Z,88.45
2017-08-21T10:59:58.250Z,88.35
2017-08-21T11:01:07.213Z,85.95
2017-08-21T11:02:16.172Z,86.19
2017-08-21T11:03:25.129Z,86.62
2017-08-21T11:04:34.086Z,92.82
2017-08-21T11:05:43.048Z,96.37
2017-08-21T11:06:52.011Z,98.29
2017-08-21T11:08:00.970Z,99.77
2017-08-21T11:09:09.924Z,99.99
2017-08-21T11:10:18.882Z,99.99
2017-08-21T11:11:27.850Z,99.99
2017-08-21T11:12:36.816Z,99.99
2017-08-21T11:13:45.778Z,99.99
2017-08-21T11:14:54.737Z,99.99
2017-08-21T11:16:03.707Z,99.99
2017-08-21T11:17:12.658Z,99.99
2017-08-21T11:18:21.616Z,99.99
2017-08-21T11:19:30.596Z,99.99
2017-08-21T11:20:39.548Z,99.99
2017-08-21T11:21:48.686Z,99.99
2017-08-21T11:22:57.637Z,99.99
2017-08-21T11:24:06.596Z,99.99
2017-08-21T11:25:15.576Z,99.99
2017-08-21T11:26:24.548Z,99.99
2017-08-21T11:27:33.499Z,99.99
2017-08-21T11:28:42.458Z,99.99
2017-08-21T11:29:51.420Z,99.99
2017-08-21T11:31:00.375Z,99.99
2017-08-21T11:32:09.337Z,99.99
2017-08-21T11:33:18.436Z,99.99
2017-08-21T11:34:27.833Z,99.99
2017-08-21T11:35:36.794Z,99.99
2017-08-21T11:36:45.758Z,99.99
2017-08-21T11:37:54.830Z,99.99
2017-08-21T11:39:03.788Z,99.99
2017-08-21T11:40:13.070Z,99.99
2017-08-21T11:41:22.024Z,99.99
2017-08-21T11:42:30.984Z,99.99
2017-08-21T11:43:39.933Z,99.99
2017-08-21T11:44:48.889Z,99.99
2017-08-21T11:45:57.843Z,99.99
2017-08-21T11:47:06.805Z,99.99
2017-08-21T11:48:15.760Z,99.99
2017-08-21T11:49:24.724Z,99.99
2017-08-21T11:50:33.678Z,99.99
2017-08-21T11:51:42.630Z,99.99
2017-08-21T11:52:51.587Z,99.99
2017-08-21T11:54:00.959Z,99.99
2017-08-21T11:55:10.240Z,99.99
2017-08-21T11:56:19.399Z,99.99
2017-08-21T11:57:28.538Z,99.99
2017-08-21T11:58:37.485Z,99.99
2017-08-21T11:59:46.443Z,99.99
2017-08-21T12:00:55.476Z,99.99
2017-08-21T12:02:04.536Z,99.99
2017-08-21T12:03:13.607Z,99.99
2017-08-21T12:04:22.676Z,99.99
2017-08-21T12:05:31.684Z,99.99
2017-08-21T12:06:40.964Z,99.99
2017-08-21T12:07:49.963Z,99.99
2017-08-21T12:08:58.929Z,99.99
2017-08-21T12:10:08.011Z,99.99
2017-08-21T12:11:17.016Z,99.99
2017-08-21T12:12:25.968Z,99.99
2017-08-21T12:13:34.931Z,99.99
2017-08-21T12:14:43.892Z,99.99
2017-08-21T12:15:52.849Z,99.99
2017-08-21T12:17:01.805Z,99.99
2017-08-21T12:18:10.765Z,99.99
2017-08-21T12:19:19.812Z,99.99
2017-08-21T12:20:28.888Z,99.99
2017-08-21T12:21:37.841Z,99.99
2017-08-21T12:22:46.812Z,99.99
2017-08-21T12:23:55.776Z,99.99
2017-08-21T12:25:04.749Z,99.99
2017-08-21T12:26:13.711Z,99.99
2017-08-21T12:27:22.665Z,99.99
2017-08-21T12:28:31.626Z,99.99
2017-08-21T12:29:40.582Z,99.99
2017-08-21T12:30:49.533Z,99.99
2017-08-21T12:31:58.495Z,99.99
2017-08-21T12:33:07.455Z,99.99
2017-08-21T12:34:16.419Z,99.99
2017-08-21T12:35:25.374Z,99.99
2017-08-21T12:36:34.673Z,99.99
2017-08-21T12:37:43.702Z,99.99
2017-08-21T12:38:52.708Z,99.99
2017-08-21T12:40:01.659Z,99.99
2017-08-21T12:41:10.611Z,99.99
2017-08-21T12:42:19.571Z,99.99
2017-08-21T12:43:28.531Z,99.99
2017-08-21T12:44:37.498Z,99.99
2017-08-21T12:45:46.457Z,99.99
2017-08-21T12:46:55.418Z,99.99
2017-08-21T12:48:04.538Z,99.99
2017-08-21T12:49:13.501Z,99.99
2017-08-21T12:50:22.500Z,99.99
2017-08-21T12:51:31.461Z,99.99
2017-08-21T12:52:40.413Z,99.99
2017-08-21T12:53:49.372Z,99.99
2017-08-21T12:54:58.327Z,99.99
2017-08-21T12:56:07.290Z,99.99
2017-08-21T12:57:16.305Z,99.99
2017-08-21T12:58:25.284Z,99.99
2017-08-21T12:59:34.245Z,99.99
2017-08-21T13:00:43.215Z,99.99
2017-08-21T13:01:52.177Z,99.99
2017-08-21T13:03:01.174Z,99.99
2017-08-21T13:04:10.225Z,99.99
2017-08-21T13:05:19.504Z,99.99
2017-08-21T13:06:28.468Z,99.99
2017-08-21T13:07:37.435Z,99.99
2017-08-21T13:08:46.393Z,99.99
2017-08-21T13:09:55.366Z,99.99
2017-08-21T13:11:04.332Z,99.99
2017-08-21T13:12:13.341Z,99.99
2017-08-21T13:13:22.311Z,99.99
2017-08-21T13:14:31.266Z,99.99
2017-08-21T13:15:40.288Z,99.99
2017-08-21T13:16:49.536Z,99.99
2017-08-21T13:17:58.512Z,99.99
2017-08-21T13:19:07.508Z,99.99
2017-08-21T13:20:16.487Z,99.99
2017-08-21T13:21:25.464Z,99.99
2017-08-21T13:22:34.460Z,99.99
2017-08-21T13:23:43.445Z,99.99
2017-08-21T13:24:52.423Z,99.99
2017-08-21T13:26:01.417Z,99.99
2017-08-21T13:27:10.405Z,99.99
2017-08-21T13:28:19.703Z,99.99
2017-08-21T13:29:28.828Z,99.99
2017-08-21T13:30:37.813Z,99.99
2017-08-21T13:31:46.813Z,99.99
2017-08-21T13:32:55.790Z,99.99
2017-08-21T13:34:04.781Z,98.58
2017-08-21T13:35:14.084Z,99.99
2017-08-21T13:36:23.058Z,99.99
2017-08-21T13:37:32.046Z,99.35
2017-08-21T13:38:41.026Z,98.87
2017-08-21T13:39:50.006Z,99.99
2017-08-21T13:40:58.978Z,99.99
2017-08-21T13:42:08.103Z,99.99
2017-08-21T13:43:17.277Z,99.99
2017-08-21T13:44:26.459Z,99.99
2017-08-21T13:45:36.003Z,99.99
2017-08-21T13:46:45.313Z,98.87
2017-08-21T13:47:54.421Z,98.29
2017-08-21T13:49:03.514Z,96.75
2017-08-21T13:50:12.588Z,99.06
2017-08-21T13:51:21.864Z,97.81
2017-08-21T13:52:30.915Z,99.99
2017-08-21T13:53:40.718Z,99.83
2017-08-21T13:54:50.974Z,99.26
2017-08-21T13:56:00.283Z,99.99
2017-08-21T13:57:09.506Z,99.99
2017-08-21T13:58:18.556Z,93.87
2017-08-21T13:59:27.690Z,98.34
2017-08-21T14:00:36.745Z,99.99
2017-08-21T14:01:45.729Z,98.63
2017-08-21T14:02:54.692Z,99.99
2017-08-21T14:04:03.664Z,99.99
2017-08-21T14:05:12.619Z,99.99
2017-08-21T14:06:21.595Z,99.99
2017-08-21T14:07:30.552Z,99.99
2017-08-21T14:08:39.972Z,99.99
2017-08-21T14:09:49.055Z,99.99
2017-08-21T14:10:58.229Z,99.99
2017-08-21T14:12:07.695Z,99.99
2017-08-21T14:13:16.835Z,99.99
2017-08-21T14:14:25.886Z,99.99
2017-08-21T14:15:35.089Z,99.99
2017-08-21T14:16:44.391Z,99.99
2017-08-21T14:17:53.578Z,99.99
2017-08-21T14:19:02.682Z,99.99
2017-08-21T14:20:12.040Z,99.99
2017-08-21T14:21:21.278Z,99.99
2017-08-21T14:22:30.351Z,99.99
2017-08-21T14:23:39.543Z,99.99
2017-08-21T14:24:48.686Z,99.99
2017-08-21T14:25:57.730Z,99.99
2017-08-21T14:27:06.689Z,99.99
2017-08-21T14:28:15.650Z,99.99
2017-08-21T14:29:24.605Z,99.99
2017-08-21T14:30:33.877Z,99.99
2017-08-21T14:31:42.834Z,99.99
2017-08-21T14:32:51.875Z,99.99
2017-08-21T14:34:01.004Z,99.99
2017-08-21T14:35:10.238Z,99.99
2017-08-21T14:36:19.659Z,99.99
2017-08-21T14:37:28.630Z,99.99
2017-08-21T14:38:37.634Z,99.99
2017-08-21T14:39:46.612Z,99.99
2017-08-21T14:40:55.605Z,99.99
2017-08-21T14:42:04.699Z,99.99
2017-08-21T14:43:13.737Z,99.99
2017-08-21T14:44:22.798Z,99.99
2017-08-21T14:45:31.762Z,99.99
2017-08-21T14:46:40.816Z,99.99
2017-08-21T14:47:50.101Z,99.99
2017-08-21T14:48:59.059Z,99.99
2017-08-21T14:50:08.013Z,99.99
2017-08-21T14:51:17.458Z,99.99
2017-08-21T14:52:26.734Z,99.99
2017-08-21T14:53:35.834Z,99.99
2017-08-21T14:54:44.781Z,99.99
2017-08-21T14:55:53.826Z,99.99
2017-08-21T14:57:02.844Z,99.99